sensor_id;sensor_type;location;lat;lon;timestamp;pressure;altitude;pressure_sealevel;temperature;humidity
49843;BME280;55559;48.898;9.184;2022-09-03T00:01:49;97974.66;;;17.26;80.12
49843;BME280;55559;48.898;9.184;2022-09-03T00:04:24;97972.59;;;17.28;78.91
49843;BME280;55559;48.898;9.184;2022-09-03T00:07:00;97986.41;;;17.25;80.06
49843;BME280;55559;48.898;9.184;2022-09-03T00:09:32;97974.03;;;17.24;79.06
49843;BME280;55559;48.898;9.184;2022-09-03T00:12:09;97975.03;;;17.23;78.88
49843;BME280;55559;48.898;9.184;2022-09-03T00:14:40;97968.53;;;17.32;78.95
49843;BME280;55559;48.898;9.184;2022-09-03T00:17:10;97955.59;;;17.21;81.07
49843;BME280;55559;48.898;9.184;2022-09-03T00:19:44;97958.28;;;17.21;79.30
49843;BME280;55559;48.898;9.184;2022-09-03T00:22:16;97962.03;;;17.26;78.84
49843;BME280;55559;48.898;9.184;2022-09-03T00:24:45;97979.72;;;17.36;78.98
49843;BME280;55559;48.898;9.184;2022-09-03T00:27:18;97955.22;;;17.24;78.96
49843;BME280;55559;48.898;9.184;2022-09-03T00:29:50;97973.41;;;17.28;81.00
49843;BME280;55559;48.898;9.184;2022-09-03T00:32:22;97972.66;;;17.13;81.18
49843;BME280;55559;48.898;9.184;2022-09-03T00:34:55;97969.97;;;17.13;80.77
49843;BME280;55559;48.898;9.184;2022-09-03T00:37:23;97969.78;;;17.15;80.76
49843;BME280;55559;48.898;9.184;2022-09-03T00:39:53;97979.69;;;17.14;80.90
49843;BME280;55559;48.898;9.184;2022-09-03T00:42:34;97985.97;;;17.21;79.93
49843;BME280;55559;48.898;9.184;2022-09-03T00:45:16;97995.59;;;17.31;79.86
49843;BME280;55559;48.898;9.184;2022-09-03T00:48:02;97990.25;;;17.16;81.93
49843;BME280;55559;48.898;9.184;2022-09-03T00:50:41;97995.31;;;17.25;82.11
49843;BME280;55559;48.898;9.184;2022-09-03T00:53:16;97989.34;;;17.30;82.33
49843;BME280;55559;48.898;9.184;2022-09-03T00:55:51;97956.88;;;17.03;81.93
49843;BME280;55559;48.898;9.184;2022-09-03T00:58:37;97984.88;;;17.16;82.25
49843;BME280;55559;48.898;9.184;2022-09-03T01:01:14;97983.59;;;17.11;83.24
49843;BME280;55559;48.898;9.184;2022-09-03T01:03:49;97963.88;;;17.04;83.27
49843;BME280;55559;48.898;9.184;2022-09-03T01:06:23;97984.97;;;17.22;82.53
49843;BME280;55559;48.898;9.184;2022-09-03T01:09:07;97952.81;;;16.92;84.01
49843;BME280;55559;48.898;9.184;2022-09-03T01:11:45;97976.75;;;17.09;84.49
49843;BME280;55559;48.898;9.184;2022-09-03T01:14:25;97987.56;;;17.16;83.55
49843;BME280;55559;48.898;9.184;2022-09-03T01:17:01;97988.53;;;17.29;82.67
49843;BME280;55559;48.898;9.184;2022-09-03T01:20:02;97975.53;;;17.11;85.03
49843;BME280;55559;48.898;9.184;2022-09-03T01:22:50;97988.09;;;17.26;82.77
49843;BME280;55559;48.898;9.184;2022-09-03T01:25:34;97993.97;;;17.36;82.60
49843;BME280;55559;48.898;9.184;2022-09-03T01:28:18;97960.59;;;17.24;80.22
49843;BME280;55559;48.898;9.184;2022-09-03T01:30:53;97969.78;;;17.36;79.49
49843;BME280;55559;48.898;9.184;2022-09-03T01:33:27;97975.41;;;17.41;80.84
49843;BME280;55559;48.898;9.184;2022-09-03T01:36:00;97987.84;;;17.42;81.39
49843;BME280;55559;48.898;9.184;2022-09-03T01:38:34;97957.03;;;17.23;81.42
49843;BME280;55559;48.898;9.184;2022-09-03T01:41:12;97948.88;;;17.10;82.75
49843;BME280;55559;48.898;9.184;2022-09-03T01:44:02;97965.44;;;17.14;83.67
49843;BME280;55559;48.898;9.184;2022-09-03T01:46:38;97973.84;;;17.25;82.18
49843;BME280;55559;48.898;9.184;2022-09-03T01:49:13;97981.47;;;17.28;82.74
49843;BME280;55559;48.898;9.184;2022-09-03T01:51:45;97979.59;;;17.22;86.17
49843;BME280;55559;48.898;9.184;2022-09-03T01:54:22;97999.84;;;17.25;83.79
49843;BME280;55559;48.898;9.184;2022-09-03T01:57:23;97998.19;;;17.24;84.25
49843;BME280;55559;48.898;9.184;2022-09-03T01:59:58;98005.09;;;17.33;83.97
49843;BME280;55559;48.898;9.184;2022-09-03T02:02:37;97971.00;;;17.12;82.50
49843;BME280;55559;48.898;9.184;2022-09-03T02:05:07;98006.66;;;17.42;80.91
49843;BME280;55559;48.898;9.184;2022-09-03T02:07:37;97948.97;;;17.23;80.17
49843;BME280;55559;48.898;9.184;2022-09-03T02:10:06;97991.78;;;17.46;82.22
49843;BME280;55559;48.898;9.184;2022-09-03T02:12:35;97969.53;;;17.31;82.13
49843;BME280;55559;48.898;9.184;2022-09-03T02:15:07;97974.59;;;17.41;81.21
49843;BME280;55559;48.898;9.184;2022-09-03T02:17:36;97966.53;;;17.19;85.13
49843;BME280;55559;48.898;9.184;2022-09-03T02:20:06;97999.34;;;17.36;84.36
49843;BME280;55559;48.898;9.184;2022-09-03T02:22:35;97968.19;;;17.20;84.86
49843;BME280;55559;48.898;9.184;2022-09-03T02:25:02;97976.38;;;17.12;85.58
49843;BME280;55559;48.898;9.184;2022-09-03T02:27:29;97984.50;;;17.19;85.04
49843;BME280;55559;48.898;9.184;2022-09-03T02:29:57;97986.41;;;17.25;83.86
49843;BME280;55559;48.898;9.184;2022-09-03T02:32:25;97992.44;;;17.27;83.61
49843;BME280;55559;48.898;9.184;2022-09-03T02:34:53;97979.09;;;17.34;82.44
49843;BME280;55559;48.898;9.184;2022-09-03T02:37:21;97996.59;;;17.51;81.68
49843;BME280;55559;48.898;9.184;2022-09-03T02:39:48;98004.66;;;17.51;82.62
49843;BME280;55559;48.898;9.184;2022-09-03T02:42:17;97991.91;;;17.38;83.81
49843;BME280;55559;48.898;9.184;2022-09-03T02:44:49;97984.75;;;17.24;84.87
49843;BME280;55559;48.898;9.184;2022-09-03T02:47:18;97982.16;;;17.31;83.99
49843;BME280;55559;48.898;9.184;2022-09-03T02:49:47;97982.91;;;17.24;85.43
49843;BME280;55559;48.898;9.184;2022-09-03T02:52:15;97966.09;;;17.16;86.02
49843;BME280;55559;48.898;9.184;2022-09-03T02:54:42;97974.31;;;17.14;87.47
49843;BME280;55559;48.898;9.184;2022-09-03T02:57:13;97980.16;;;17.18;86.52
49843;BME280;55559;48.898;9.184;2022-09-03T02:59:41;97986.03;;;17.28;88.72
49843;BME280;55559;48.898;9.184;2022-09-03T03:02:10;97960.81;;;17.07;87.17
49843;BME280;55559;48.898;9.184;2022-09-03T03:04:37;97973.25;;;17.08;87.88
49843;BME280;55559;48.898;9.184;2022-09-03T03:07:06;97958.44;;;16.98;88.92
49843;BME280;55559;48.898;9.184;2022-09-03T03:09:32;97968.38;;;16.97;89.65
49843;BME280;55559;48.898;9.184;2022-09-03T03:12:00;97962.47;;;16.87;90.27
49843;BME280;55559;48.898;9.184;2022-09-03T03:14:27;97998.63;;;17.06;91.15
49843;BME280;55559;48.898;9.184;2022-09-03T03:16:54;97980.63;;;17.06;89.49
49843;BME280;55559;48.898;9.184;2022-09-03T03:19:21;97987.38;;;17.17;88.78
49843;BME280;55559;48.898;9.184;2022-09-03T03:21:47;97986.50;;;17.10;89.97
49843;BME280;55559;48.898;9.184;2022-09-03T03:24:16;97980.63;;;17.06;89.69
49843;BME280;55559;48.898;9.184;2022-09-03T03:26:42;97996.00;;;17.13;91.13
49843;BME280;55559;48.898;9.184;2022-09-03T03:29:14;97987.94;;;17.13;88.31
49843;BME280;55559;48.898;9.184;2022-09-03T03:31:41;97991.56;;;17.05;90.56
49843;BME280;55559;48.898;9.184;2022-09-03T03:34:08;97983.44;;;16.98;91.03
49843;BME280;55559;48.898;9.184;2022-09-03T03:36:35;97992.72;;;16.96;91.16
49843;BME280;55559;48.898;9.184;2022-09-03T03:39:02;97989.41;;;16.94;89.88
49843;BME280;55559;48.898;9.184;2022-09-03T03:41:31;98011.78;;;17.01;91.48
49843;BME280;55559;48.898;9.184;2022-09-03T03:44:00;98005.59;;;17.00;91.58
49843;BME280;55559;48.898;9.184;2022-09-03T03:46:29;97987.97;;;16.98;91.04
49843;BME280;55559;48.898;9.184;2022-09-03T03:48:57;98000.22;;;17.00;92.03
49843;BME280;55559;48.898;9.184;2022-09-03T03:51:24;98007.50;;;17.06;91.26
49843;BME280;55559;48.898;9.184;2022-09-03T03:53:53;97989.97;;;16.89;93.14
49843;BME280;55559;48.898;9.184;2022-09-03T03:56:21;98007.22;;;17.01;92.64
49843;BME280;55559;48.898;9.184;2022-09-03T03:58:49;97986.06;;;16.91;92.72
49843;BME280;55559;48.898;9.184;2022-09-03T04:01:18;98002.72;;;17.02;92.95
49843;BME280;55559;48.898;9.184;2022-09-03T04:03:45;98001.75;;;17.09;91.86
49843;BME280;55559;48.898;9.184;2022-09-03T04:06:14;98016.59;;;17.05;94.05
49843;BME280;55559;48.898;9.184;2022-09-03T04:08:43;97983.84;;;16.80;94.31
49843;BME280;55559;48.898;9.184;2022-09-03T04:11:12;98008.56;;;16.90;95.05
49843;BME280;55559;48.898;9.184;2022-09-03T04:13:41;97976.16;;;16.77;95.33
49843;BME280;55559;48.898;9.184;2022-09-03T04:16:11;98001.22;;;16.99;95.57
49843;BME280;55559;48.898;9.184;2022-09-03T04:18:38;97995.59;;;16.94;96.58
49843;BME280;55559;48.898;9.184;2022-09-03T04:21:08;98004.47;;;16.95;96.56
49843;BME280;55559;48.898;9.184;2022-09-03T04:23:36;97979.94;;;16.83;97.08
49843;BME280;55559;48.898;9.184;2022-09-03T04:26:04;98002.09;;;16.85;98.11
49843;BME280;55559;48.898;9.184;2022-09-03T04:28:32;98009.94;;;16.86;98.18
49843;BME280;55559;48.898;9.184;2022-09-03T04:31:00;98004.38;;;16.88;98.29
49843;BME280;55559;48.898;9.184;2022-09-03T04:33:28;97988.31;;;16.73;100.00
49843;BME280;55559;48.898;9.184;2022-09-03T04:36:02;98018.22;;;16.85;99.91
49843;BME280;55559;48.898;9.184;2022-09-03T04:38:29;98002.94;;;16.85;99.16
49843;BME280;55559;48.898;9.184;2022-09-03T04:40:57;97986.88;;;16.77;97.67
49843;BME280;55559;48.898;9.184;2022-09-03T04:43:25;97989.38;;;16.79;98.32
49843;BME280;55559;48.898;9.184;2022-09-03T04:45:55;97992.72;;;16.81;98.92
49843;BME280;55559;48.898;9.184;2022-09-03T04:48:23;97993.75;;;16.80;99.45
49843;BME280;55559;48.898;9.184;2022-09-03T04:50:52;97994.94;;;16.77;99.08
49843;BME280;55559;48.898;9.184;2022-09-03T04:53:19;97999.75;;;16.82;99.07
49843;BME280;55559;48.898;9.184;2022-09-03T04:55:47;97997.19;;;16.88;100.00
49843;BME280;55559;48.898;9.184;2022-09-03T04:58:13;97987.09;;;16.90;99.07
49843;BME280;55559;48.898;9.184;2022-09-03T05:00:40;98001.69;;;16.88;100.00
49843;BME280;55559;48.898;9.184;2022-09-03T05:03:07;97998.72;;;16.83;100.00
49843;BME280;55559;48.898;9.184;2022-09-03T05:05:34;98019.50;;;16.89;100.00
49843;BME280;55559;48.898;9.184;2022-09-03T05:08:03;98008.75;;;16.89;100.00
49843;BME280;55559;48.898;9.184;2022-09-03T05:10:30;98010.25;;;16.91;100.00
49843;BME280;55559;48.898;9.184;2022-09-03T05:12:58;97997.91;;;16.97;100.00
49843;BME280;55559;48.898;9.184;2022-09-03T05:15:26;98011.88;;;17.07;100.00
49843;BME280;55559;48.898;9.184;2022-09-03T05:17:56;97994.59;;;16.95;100.00
49843;BME280;55559;48.898;9.184;2022-09-03T05:20:23;98025.03;;;17.02;100.00
49843;BME280;55559;48.898;9.184;2022-09-03T05:22:51;98020.41;;;16.96;100.00
49843;BME280;55559;48.898;9.184;2022-09-03T05:25:19;98013.38;;;16.95;100.00
49843;BME280;55559;48.898;9.184;2022-09-03T05:27:46;98015.03;;;16.96;100.00
49843;BME280;55559;48.898;9.184;2022-09-03T05:30:13;97992.00;;;16.87;100.00
49843;BME280;55559;48.898;9.184;2022-09-03T05:32:40;98018.34;;;16.98;100.00
49843;BME280;55559;48.898;9.184;2022-09-03T05:35:08;98005.97;;;16.97;100.00
49843;BME280;55559;48.898;9.184;2022-09-03T05:37:36;98029.25;;;17.11;100.00
49843;BME280;55559;48.898;9.184;2022-09-03T05:40:03;98014.41;;;17.31;100.00
49843;BME280;55559;48.898;9.184;2022-09-03T05:42:32;98001.38;;;17.13;100.00
49843;BME280;55559;48.898;9.184;2022-09-03T05:45:05;98009.91;;;17.01;100.00
49843;BME280;55559;48.898;9.184;2022-09-03T05:47:36;98025.59;;;16.98;100.00
49843;BME280;55559;48.898;9.184;2022-09-03T05:50:05;98005.25;;;16.88;100.00
49843;BME280;55559;48.898;9.184;2022-09-03T05:52:33;98002.00;;;17.15;100.00
49843;BME280;55559;48.898;9.184;2022-09-03T05:55:00;98006.22;;;18.10;93.79
49843;BME280;55559;48.898;9.184;2022-09-03T05:57:27;98021.88;;;18.63;87.22
49843;BME280;55559;48.898;9.184;2022-09-03T05:59:56;98010.22;;;18.21;89.61
49843;BME280;55559;48.898;9.184;2022-09-03T06:02:23;98003.19;;;17.70;95.23
49843;BME280;55559;48.898;9.184;2022-09-03T06:04:50;98016.50;;;17.35;100.00
49843;BME280;55559;48.898;9.184;2022-09-03T06:07:17;98032.34;;;17.30;100.00
49843;BME280;55559;48.898;9.184;2022-09-03T06:09:43;98036.91;;;17.29;100.00
49843;BME280;55559;48.898;9.184;2022-09-03T06:12:10;98020.72;;;17.23;100.00
49843;BME280;55559;48.898;9.184;2022-09-03T06:14:37;98042.63;;;17.41;100.00
49843;BME280;55559;48.898;9.184;2022-09-03T06:17:05;98043.91;;;17.67;100.00
49843;BME280;55559;48.898;9.184;2022-09-03T06:19:35;98019.25;;;17.63;99.28
49843;BME280;55559;48.898;9.184;2022-09-03T06:22:02;98014.06;;;17.62;98.93
49843;BME280;55559;48.898;9.184;2022-09-03T06:24:29;98008.69;;;17.62;100.00
49843;BME280;55559;48.898;9.184;2022-09-03T06:26:56;98040.69;;;17.78;100.00
49843;BME280;55559;48.898;9.184;2022-09-03T06:29:23;98039.09;;;17.84;98.91
49843;BME280;55559;48.898;9.184;2022-09-03T06:31:49;98045.41;;;17.91;99.13
49843;BME280;55559;48.898;9.184;2022-09-03T06:34:18;98021.69;;;17.58;100.00
49843;BME280;55559;48.898;9.184;2022-09-03T06:36:47;98037.13;;;17.71;100.00
49843;BME280;55559;48.898;9.184;2022-09-03T06:39:13;98041.34;;;17.80;100.00
49843;BME280;55559;48.898;9.184;2022-09-03T06:41:40;98025.44;;;17.85;100.00
49843;BME280;55559;48.898;9.184;2022-09-03T06:44:08;98005.03;;;17.70;100.00
49843;BME280;55559;48.898;9.184;2022-09-03T06:46:38;98052.16;;;18.09;98.13
49843;BME280;55559;48.898;9.184;2022-09-03T06:49:07;98052.16;;;18.09;100.00
49843;BME280;55559;48.898;9.184;2022-09-03T06:51:35;98021.78;;;17.87;97.96
49843;BME280;55559;48.898;9.184;2022-09-03T06:54:04;98049.28;;;18.10;99.88
49843;BME280;55559;48.898;9.184;2022-09-03T06:56:33;98049.91;;;18.12;98.29
49843;BME280;55559;48.898;9.184;2022-09-03T06:59:06;98052.59;;;18.12;99.20
49843;BME280;55559;48.898;9.184;2022-09-03T07:01:34;98011.56;;;18.03;96.97
49843;BME280;55559;48.898;9.184;2022-09-03T07:04:05;98027.38;;;18.13;98.25
49843;BME280;55559;48.898;9.184;2022-09-03T07:06:36;98044.28;;;18.35;97.67
49843;BME280;55559;48.898;9.184;2022-09-03T07:09:03;98042.59;;;18.34;98.01
49843;BME280;55559;48.898;9.184;2022-09-03T07:11:30;98026.69;;;18.39;99.16
49843;BME280;55559;48.898;9.184;2022-09-03T07:14:01;98061.44;;;18.63;96.36
49843;BME280;55559;48.898;9.184;2022-09-03T07:16:31;98043.78;;;18.60;96.16
49843;BME280;55559;48.898;9.184;2022-09-03T07:19:00;98030.94;;;18.55;96.75
49843;BME280;55559;48.898;9.184;2022-09-03T07:21:29;98054.38;;;18.96;94.27
49843;BME280;55559;48.898;9.184;2022-09-03T07:23:59;98047.38;;;19.09;92.67
49843;BME280;55559;48.898;9.184;2022-09-03T07:26:29;98044.06;;;19.07;93.01
49843;BME280;55559;48.898;9.184;2022-09-03T07:28:57;98057.91;;;19.52;89.26
49843;BME280;55559;48.898;9.184;2022-09-03T07:31:29;98025.03;;;19.22;89.88
49843;BME280;55559;48.898;9.184;2022-09-03T07:33:56;98056.34;;;19.16;93.62
49843;BME280;55559;48.898;9.184;2022-09-03T07:36:26;98052.78;;;19.15;94.60
49843;BME280;55559;48.898;9.184;2022-09-03T07:38:57;98035.78;;;19.08;92.85
49843;BME280;55559;48.898;9.184;2022-09-03T07:41:26;98053.28;;;19.39;90.10
49843;BME280;55559;48.898;9.184;2022-09-03T07:43:56;98034.00;;;19.36;92.13
49843;BME280;55559;48.898;9.184;2022-09-03T07:46:25;98058.94;;;19.64;95.45
49843;BME280;55559;48.898;9.184;2022-09-03T07:48:53;98018.88;;;19.41;95.52
49843;BME280;55559;48.898;9.184;2022-09-03T07:51:24;98031.13;;;19.44;94.67
49843;BME280;55559;48.898;9.184;2022-09-03T07:53:53;98008.91;;;19.42;100.00
49843;BME280;55559;48.898;9.184;2022-09-03T07:56:41;98048.63;;;19.75;93.97
49843;BME280;55559;48.898;9.184;2022-09-03T07:59:20;98050.09;;;19.77;94.13
49843;BME280;55559;48.898;9.184;2022-09-03T08:01:48;98068.78;;;19.92;94.16
49843;BME280;55559;48.898;9.184;2022-09-03T08:04:31;98022.50;;;19.82;94.73
49843;BME280;55559;48.898;9.184;2022-09-03T08:07:23;98052.34;;;20.27;89.55
49843;BME280;55559;48.898;9.184;2022-09-03T08:09:52;98037.00;;;19.87;92.40
49843;BME280;55559;48.898;9.184;2022-09-03T08:12:23;98050.91;;;20.31;89.37
49843;BME280;55559;48.898;9.184;2022-09-03T08:14:52;98051.25;;;20.88;87.13
49843;BME280;55559;48.898;9.184;2022-09-03T08:17:30;98072.88;;;20.88;87.08
49843;BME280;55559;48.898;9.184;2022-09-03T08:19:58;98037.78;;;20.61;87.88
49843;BME280;55559;48.898;9.184;2022-09-03T08:22:27;98078.31;;;20.61;91.50
49843;BME280;55559;48.898;9.184;2022-09-03T08:24:54;98062.53;;;20.25;95.09
49843;BME280;55559;48.898;9.184;2022-09-03T08:27:26;98060.44;;;20.67;92.16
49843;BME280;55559;48.898;9.184;2022-09-03T08:29:55;98049.63;;;20.60;87.75
49843;BME280;55559;48.898;9.184;2022-09-03T08:32:43;98066.09;;;21.17;83.46
49843;BME280;55559;48.898;9.184;2022-09-03T08:35:41;98054.66;;;21.15;84.40
49843;BME280;55559;48.898;9.184;2022-09-03T08:38:07;98045.56;;;21.48;82.76
49843;BME280;55559;48.898;9.184;2022-09-03T08:40:36;98084.16;;;21.30;85.51
49843;BME280;55559;48.898;9.184;2022-09-03T08:43:09;98088.09;;;20.42;94.53
49843;BME280;55559;48.898;9.184;2022-09-03T08:45:38;98082.50;;;20.44;96.55
49843;BME280;55559;48.898;9.184;2022-09-03T08:48:09;98090.41;;;20.32;100.00
49843;BME280;55559;48.898;9.184;2022-09-03T08:50:40;98090.41;;;20.25;100.00
49843;BME280;55559;48.898;9.184;2022-09-03T08:53:11;98103.25;;;20.37;100.00
49843;BME280;55559;48.898;9.184;2022-09-03T08:55:50;98052.19;;;19.95;100.00
49843;BME280;55559;48.898;9.184;2022-09-03T08:58:35;98076.44;;;20.49;96.01
49843;BME280;55559;48.898;9.184;2022-09-03T09:01:17;98085.81;;;20.53;96.01
49843;BME280;55559;48.898;9.184;2022-09-03T09:03:53;98076.44;;;20.15;100.00
49843;BME280;55559;48.898;9.184;2022-09-03T09:06:32;98089.34;;;20.06;100.00
49843;BME280;55559;48.898;9.184;2022-09-03T09:09:14;98081.44;;;20.12;100.00
49843;BME280;55559;48.898;9.184;2022-09-03T09:11:57;98077.72;;;20.13;100.00
49843;BME280;55559;48.898;9.184;2022-09-03T09:14:39;98100.72;;;20.62;94.31
49843;BME280;55559;48.898;9.184;2022-09-03T09:17:26;98105.34;;;20.68;94.00
49843;BME280;55559;48.898;9.184;2022-09-03T09:20:08;98131.28;;;20.83;93.74
49843;BME280;55559;48.898;9.184;2022-09-03T09:22:46;98110.31;;;20.44;94.38
49843;BME280;55559;48.898;9.184;2022-09-03T09:25:16;98102.84;;;20.67;95.22
49843;BME280;55559;48.898;9.184;2022-09-03T09:27:47;98115.06;;;20.76;94.42
49843;BME280;55559;48.898;9.184;2022-09-03T09:32:52;98088.94;;;21.28;88.12
49843;BME280;55559;48.898;9.184;2022-09-03T09:36:02;98101.16;;;20.79;91.58
49843;BME280;55559;48.898;9.184;2022-09-03T09:38:49;98095.22;;;21.22;88.85
49843;BME280;55559;48.898;9.184;2022-09-03T09:41:26;98097.41;;;21.52;87.61
49843;BME280;55559;48.898;9.184;2022-09-03T09:44:00;98096.94;;;21.03;90.71
49843;BME280;55559;48.898;9.184;2022-09-03T09:46:34;98116.63;;;21.76;85.99
49843;BME280;55559;48.898;9.184;2022-09-03T09:49:22;98084.34;;;20.70;94.32
49843;BME280;55559;48.898;9.184;2022-09-03T09:52:02;98095.16;;;20.63;95.72
49843;BME280;55559;48.898;9.184;2022-09-03T09:54:33;98112.78;;;21.45;88.79
49843;BME280;55559;48.898;9.184;2022-09-03T09:57:03;98096.34;;;21.53;89.34
49843;BME280;55559;48.898;9.184;2022-09-03T09:59:34;98086.25;;;21.67;85.50
49843;BME280;55559;48.898;9.184;2022-09-03T10:02:08;98080.66;;;21.62;87.50
49843;BME280;55559;48.898;9.184;2022-09-03T10:04:39;98077.53;;;21.19;89.21
49843;BME280;55559;48.898;9.184;2022-09-03T10:07:22;98060.06;;;21.22;89.20
49843;BME280;55559;48.898;9.184;2022-09-03T10:10:19;98098.59;;;21.04;93.57
49843;BME280;55559;48.898;9.184;2022-09-03T10:12:50;98067.59;;;21.07;94.32
49843;BME280;55559;48.898;9.184;2022-09-03T10:15:28;98071.69;;;21.23;91.35
49843;BME280;55559;48.898;9.184;2022-09-03T10:18:13;98081.81;;;21.41;89.46
49843;BME280;55559;48.898;9.184;2022-09-03T10:22:17;98064.81;;;21.97;82.37
49843;BME280;55559;48.898;9.184;2022-09-03T10:25:09;98098.25;;;23.03;75.70
49843;BME280;55559;48.898;9.184;2022-09-03T10:28:28;98086.13;;;22.88;76.80
49843;BME280;55559;48.898;9.184;2022-09-03T10:31:11;98098.88;;;23.06;75.15
49843;BME280;55559;48.898;9.184;2022-09-03T10:33:46;98093.28;;;23.00;75.87
49843;BME280;55559;48.898;9.184;2022-09-03T10:36:19;98089.00;;;23.30;74.34
49843;BME280;55559;48.898;9.184;2022-09-03T10:38:51;98089.78;;;23.49;71.57
49843;BME280;55559;48.898;9.184;2022-09-03T10:41:27;98077.44;;;23.53;71.02
49843;BME280;55559;48.898;9.184;2022-09-03T10:44:18;98078.69;;;23.20;73.81
49843;BME280;55559;48.898;9.184;2022-09-03T10:46:58;98066.75;;;23.39;72.13
49843;BME280;55559;48.898;9.184;2022-09-03T10:49:44;98074.06;;;24.11;66.75
49843;BME280;55559;48.898;9.184;2022-09-03T10:52:20;98068.84;;;23.98;67.31
49843;BME280;55559;48.898;9.184;2022-09-03T10:55:00;98053.38;;;23.87;69.57
49843;BME280;55559;48.898;9.184;2022-09-03T10:57:36;98082.59;;;24.15;67.64
49843;BME280;55559;48.898;9.184;2022-09-03T11:00:12;98080.25;;;23.76;69.20
49843;BME280;55559;48.898;9.184;2022-09-03T11:02:56;98073.38;;;23.74;68.63
49843;BME280;55559;48.898;9.184;2022-09-03T11:05:31;98042.94;;;23.42;69.78
49843;BME280;55559;48.898;9.184;2022-09-03T11:08:36;98040.88;;;23.67;68.64
49843;BME280;55559;48.898;9.184;2022-09-03T11:12:02;98029.91;;;23.62;68.13
49843;BME280;55559;48.898;9.184;2022-09-03T11:15:02;98053.78;;;24.26;66.38
49843;BME280;55559;48.898;9.184;2022-09-03T11:17:46;98045.75;;;24.31;64.53
49843;BME280;55559;48.898;9.184;2022-09-03T11:20:32;98054.25;;;24.23;66.56
49843;BME280;55559;48.898;9.184;2022-09-03T11:23:32;98052.09;;;24.01;69.94
49843;BME280;55559;48.898;9.184;2022-09-03T11:27:04;98017.16;;;24.17;65.88
49843;BME280;55559;48.898;9.184;2022-09-03T11:30:22;98003.94;;;23.97;65.95
49843;BME280;55559;48.898;9.184;2022-09-03T11:32:59;98049.19;;;24.62;64.71
49843;BME280;55559;48.898;9.184;2022-09-03T11:47:22;98034.06;;;24.78;64.95
49843;BME280;55559;48.898;9.184;2022-09-03T11:50:05;98041.59;;;24.52;66.71
49843;BME280;55559;48.898;9.184;2022-09-03T11:52:34;98009.25;;;24.39;67.24
49843;BME280;55559;48.898;9.184;2022-09-03T11:55:05;98030.16;;;24.38;67.96
49843;BME280;55559;48.898;9.184;2022-09-03T11:57:39;98032.06;;;24.49;66.74
49843;BME280;55559;48.898;9.184;2022-09-03T12:00:10;98038.88;;;24.40;67.37
49843;BME280;55559;48.898;9.184;2022-09-03T12:02:42;98045.53;;;24.32;67.62
49843;BME280;55559;48.898;9.184;2022-09-03T12:05:29;98047.44;;;24.67;64.88
49843;BME280;55559;48.898;9.184;2022-09-03T12:08:25;98054.72;;;24.31;70.31
49843;BME280;55559;48.898;9.184;2022-09-03T12:11:06;98070.66;;;24.04;69.92
49843;BME280;55559;48.898;9.184;2022-09-03T12:13:48;98083.06;;;24.00;70.75
49843;BME280;55559;48.898;9.184;2022-09-03T12:16:45;98065.44;;;23.72;72.18
49843;BME280;55559;48.898;9.184;2022-09-03T12:19:20;98054.34;;;23.13;76.64
49843;BME280;55559;48.898;9.184;2022-09-03T12:22:09;98046.56;;;22.98;78.23
49843;BME280;55559;48.898;9.184;2022-09-03T12:29:56;98034.53;;;22.76;79.87
49843;BME280;55559;48.898;9.184;2022-09-03T12:33:04;98063.81;;;22.67;80.31
49843;BME280;55559;48.898;9.184;2022-09-03T12:35:32;98051.91;;;22.50;81.03
49843;BME280;55559;48.898;9.184;2022-09-03T12:42:11;98059.63;;;22.21;85.83
49843;BME280;55559;48.898;9.184;2022-09-03T12:45:07;98075.44;;;22.24;87.38
49843;BME280;55559;48.898;9.184;2022-09-03T12:47:48;98100.53;;;22.13;90.19
49843;BME280;55559;48.898;9.184;2022-09-03T12:50:23;98094.78;;;22.02;90.39
49843;BME280;55559;48.898;9.184;2022-09-03T12:52:54;98060.91;;;21.93;90.50
49843;BME280;55559;48.898;9.184;2022-09-03T12:56:52;98110.97;;;22.09;93.17
49843;BME280;55559;48.898;9.184;2022-09-03T13:02:43;98130.03;;;20.45;100.00
49843;BME280;55559;48.898;9.184;2022-09-03T13:05:35;98079.59;;;20.05;100.00
49843;BME280;55559;48.898;9.184;2022-09-03T13:11:34;98109.47;;;19.91;100.00
49843;BME280;55559;48.898;9.184;2022-09-03T13:14:09;98104.88;;;19.78;100.00
49843;BME280;55559;48.898;9.184;2022-09-03T13:17:14;98114.22;;;19.82;100.00
49843;BME280;55559;48.898;9.184;2022-09-03T13:23:16;98094.91;;;19.78;100.00
49843;BME280;55559;48.898;9.184;2022-09-03T13:26:20;98104.06;;;19.84;100.00
49843;BME280;55559;48.898;9.184;2022-09-03T13:29:23;98106.56;;;20.05;100.00
49843;BME280;55559;48.898;9.184;2022-09-03T13:32:07;98111.56;;;20.09;100.00
49843;BME280;55559;48.898;9.184;2022-09-03T13:34:49;98075.81;;;20.00;100.00
49843;BME280;55559;48.898;9.184;2022-09-03T13:38:48;98080.41;;;20.19;100.00
49843;BME280;55559;48.898;9.184;2022-09-03T13:41:10;98062.13;;;20.41;100.00
49843;BME280;55559;48.898;9.184;2022-09-03T13:47:45;98083.31;;;20.71;100.00
49843;BME280;55559;48.898;9.184;2022-09-03T13:50:35;98054.56;;;20.84;100.00
49843;BME280;55559;48.898;9.184;2022-09-03T13:53:08;98081.91;;;21.21;100.00
49843;BME280;55559;48.898;9.184;2022-09-03T13:55:43;98070.16;;;21.40;100.00
49843;BME280;55559;48.898;9.184;2022-09-03T13:58:20;98070.22;;;21.27;100.00
49843;BME280;55559;48.898;9.184;2022-09-03T14:00:53;98088.09;;;21.28;100.00
49843;BME280;55559;48.898;9.184;2022-09-03T14:03:31;98084.00;;;21.18;100.00
49843;BME280;55559;48.898;9.184;2022-09-03T14:06:08;98067.00;;;21.05;100.00
49843;BME280;55559;48.898;9.184;2022-09-03T14:08:51;98087.22;;;20.82;100.00
49843;BME280;55559;48.898;9.184;2022-09-03T14:11:26;98093.22;;;20.91;100.00
49843;BME280;55559;48.898;9.184;2022-09-03T14:14:11;98070.63;;;20.58;100.00
49843;BME280;55559;48.898;9.184;2022-09-03T14:16:43;98090.16;;;20.67;100.00
49843;BME280;55559;48.898;9.184;2022-09-03T14:19:16;98085.81;;;20.19;100.00